Time;durP1;ratioP1;P1;durP2;ratioP2;P2;SDS_P1;SDS_P2;PMS_P1;PMS_P2;Temp;Humidity;BMP_temperature;BMP_pressure;BME280_temperature;BME280_humidity;BME280_pressure;Samples;Min_cycle;Max_cycle;Signal;HPM_P1;HPM_P2
2022/10/27 03:03:05;;;;;;;;;;;13.20;99.90;;;;;;4954600;28;20377;-70
2022/10/27 03:05:32;;;;;;;;;;;13.10;99.90;;;;;;4969785;28;19954;-69
2022/10/27 03:07:59;;;;;;;;;;;13.00;99.90;;;;;;4965738;28;20024;-68
2022/10/27 03:10:25;;;;;;;;;;;13.00;99.90;;;;;;4966839;28;19977;-70
2022/10/27 03:12:52;;;;;;;;;;;13.00;99.90;;;;;;4951818;28;19926;-70
2022/10/27 03:15:19;;;;;;;;;;;12.90;99.90;;;;;;4950072;28;19931;-67
2022/10/27 03:17:46;;;;;;;;;;;13.00;99.90;;;;;;4955271;28;19934;-67
2022/10/27 03:20:15;;;;;;;;;;;13.00;99.90;;;;;;4959479;28;19976;-69
2022/10/27 03:22:42;;;;;;;;;;;13.00;99.90;;;;;;4966135;28;19930;-69
2022/10/27 03:25:11;;;;;;;;;;;13.00;99.90;;;;;;4960325;28;20070;-69
2022/10/27 03:27:38;;;;;;;;;;;13.10;99.90;;;;;;4965788;28;19931;-69
2022/10/27 03:30:06;;;;;;;;;;;13.20;99.90;;;;;;4962487;28;19930;-68
2022/10/27 03:32:33;;;;;;;;;;;13.20;99.90;;;;;;4956520;28;19985;-69
2022/10/27 03:34:59;;;;;;;;;;;13.20;99.90;;;;;;4957403;28;19934;-70
2022/10/27 03:37:28;;;;;;;;;;;13.10;99.90;;;;;;4963192;28;19972;-69
2022/10/27 03:39:54;;;;;;;;;;;13.10;99.90;;;;;;4959774;28;19934;-70
2022/10/27 03:42:21;;;;;;;;;;;13.00;99.90;;;;;;4966598;28;19925;-68
2022/10/27 03:44:48;;;;;;;;;;;13.00;99.90;;;;;;4965038;28;19938;-69
2022/10/27 03:47:15;;;;;;;;;;;13.00;99.90;;;;;;4966719;28;20349;-69
2022/10/27 03:49:41;;;;;;;;;;;13.00;99.90;;;;;;4965018;28;19978;-70
2022/10/27 03:52:09;;;;;;;;;;;13.00;99.90;;;;;;4962259;28;19930;-69
2022/10/27 03:54:37;;;;;;;;;;;13.00;99.90;;;;;;4961258;28;19926;-68
2022/10/27 03:57:04;;;;;;;;;;;13.00;99.90;;;;;;4966548;28;19926;-69
2022/10/27 03:59:30;;;;;;;;;;;13.00;99.90;;;;;;4965374;28;20344;-69
2022/10/27 04:01:57;;;;;;;;;;;13.00;99.90;;;;;;4962037;28;19930;-69
2022/10/27 04:04:24;;;;;;;;;;;13.00;99.90;;;;;;4960693;28;19926;-69
2022/10/27 04:06:51;;;;;;;;;;;13.00;99.90;;;;;;4967859;28;19931;-69
2022/10/27 04:09:18;;;;;;;;;;;12.90;99.90;;;;;;4957180;28;19926;-69
2022/10/27 04:11:46;;;;;;;;;;;12.80;99.90;;;;;;4956462;28;19930;-69
2022/10/27 04:14:13;;;;;;;;;;;12.80;99.90;;;;;;4966301;28;19926;-69
2022/10/27 04:16:40;;;;;;;;;;;12.80;99.90;;;;;;4964426;28;19961;-69
2022/10/27 04:19:06;;;;;;;;;;;12.80;99.90;;;;;;4965786;28;19926;-69
2022/10/27 04:21:33;;;;;;;;;;;12.70;99.90;;;;;;4958114;28;19927;-70
2022/10/27 04:24:00;;;;;;;;;;;12.70;99.90;;;;;;4954808;28;19926;-69
2022/10/27 04:26:27;;;;;;;;;;;12.80;99.90;;;;;;4964496;28;19933;-69
2022/10/27 04:28:55;;;;;;;;;;;12.70;99.90;;;;;;4955686;28;19926;-69
2022/10/27 04:31:22;;;;;;;;;;;12.70;99.90;;;;;;4959669;28;19935;-69
2022/10/27 04:33:49;;;;;;;;;;;12.60;99.90;;;;;;4964253;28;19926;-69
2022/10/27 04:36:15;;;;;;;;;;;12.60;99.90;;;;;;4958894;28;19930;-69
2022/10/27 04:38:42;;;;;;;;;;;12.70;99.90;;;;;;4965222;28;19930;-69
2022/10/27 04:41:09;;;;;;;;;;;12.70;99.90;;;;;;4960032;28;20535;-69
2022/10/27 04:43:36;;;;;;;;;;;12.80;99.90;;;;;;4958154;28;19926;-69
2022/10/27 04:46:04;;;;;;;;;;;12.80;99.90;;;;;;4954034;29;19942;-70
2022/10/27 04:48:31;;;;;;;;;;;12.90;99.90;;;;;;4958520;28;19978;-70
2022/10/27 04:50:58;;;;;;;;;;;12.80;99.90;;;;;;4956167;28;19930;-69
2022/10/27 04:53:24;;;;;;;;;;;12.90;99.90;;;;;;4959327;28;19926;-69
2022/10/27 04:55:53;;;;;;;;;;;12.90;99.90;;;;;;4960530;28;19930;-65
2022/10/27 04:58:20;;;;;;;;;;;13.00;99.90;;;;;;4953882;28;20384;-69
2022/10/27 05:00:47;;;;;;;;;;;13.00;99.90;;;;;;4964891;28;20392;-69
2022/10/27 05:03:15;;;;;;;;;;;13.00;99.90;;;;;;4955224;28;19926;-69
2022/10/27 05:05:42;;;;;;;;;;;12.90;99.90;;;;;;4954728;28;20349;-68
2022/10/27 05:08:10;;;;;;;;;;;13.00;99.90;;;;;;4963668;28;19930;-69
2022/10/27 05:10:37;;;;;;;;;;;13.00;99.90;;;;;;4967211;28;19961;-68
2022/10/27 05:13:04;;;;;;;;;;;13.00;99.90;;;;;;4961782;28;19931;-67
2022/10/27 05:15:31;;;;;;;;;;;13.10;99.90;;;;;;4949976;28;19927;-69
2022/10/27 05:17:57;;;;;;;;;;;13.10;99.90;;;;;;4953262;28;20479;-70
2022/10/27 05:20:26;;;;;;;;;;;13.00;99.90;;;;;;4955144;28;19926;-69
2022/10/27 05:22:52;;;;;;;;;;;13.00;99.90;;;;;;4954690;28;19927;-68
2022/10/27 05:25:19;;;;;;;;;;;12.90;99.90;;;;;;4966972;28;20407;-68
2022/10/27 05:27:46;;;;;;;;;;;12.90;99.90;;;;;;4958121;28;19930;-67
2022/10/27 05:30:13;;;;;;;;;;;12.90;99.90;;;;;;4953659;28;20001;-69
2022/10/27 05:32:40;;;;;;;;;;;12.90;99.90;;;;;;4955307;28;20469;-69
2022/10/27 05:35:07;;;;;;;;;;;12.90;99.90;;;;;;4957072;28;19929;-68
2022/10/27 05:37:36;;;;;;;;;;;12.90;99.90;;;;;;4957327;28;19973;-68
2022/10/27 05:40:03;;;;;;;;;;;12.80;99.90;;;;;;4964017;28;19985;-68
2022/10/27 05:42:29;;;;;;;;;;;12.80;99.90;;;;;;4959920;28;19931;-69
2022/10/27 05:44:56;;;;;;;;;;;12.80;99.90;;;;;;4964220;28;19980;-68
2022/10/27 05:47:23;;;;;;;;;;;12.80;99.90;;;;;;4961408;28;20330;-68
2022/10/27 05:49:50;;;;;;;;;;;12.80;99.90;;;;;;4963320;28;19934;-69
2022/10/27 05:52:16;;;;;;;;;;;12.80;99.90;;;;;;4959481;28;20305;-67
2022/10/27 05:54:45;;;;;;;;;;;12.90;99.90;;;;;;4959755;28;19927;-68
2022/10/27 05:57:12;;;;;;;;;;;12.90;99.90;;;;;;4961847;28;19930;-69
2022/10/27 05:59:38;;;;;;;;;;;12.90;99.90;;;;;;4959661;28;19981;-67
2022/10/27 06:02:05;;;;;;;;;;;12.90;99.90;;;;;;4952486;28;19926;-71
2022/10/27 06:04:32;;;;;;;;;;;12.80;99.90;;;;;;4958532;28;19927;-68
2022/10/27 06:06:58;;;;;;;;;;;12.80;99.90;;;;;;4956953;28;19978;-68
2022/10/27 06:09:25;;;;;;;;;;;12.80;99.90;;;;;;4964367;28;19927;-70
2022/10/27 06:11:54;;;;;;;;;;;12.80;99.90;;;;;;4962625;28;19926;-77
2022/10/27 06:14:20;;;;;;;;;;;12.80;99.90;;;;;;4958084;28;19930;-69
2022/10/27 06:16:47;;;;;;;;;;;12.80;99.90;;;;;;4962343;28;19926;-72
2022/10/27 06:19:14;;;;;;;;;;;12.80;99.90;;;;;;4955205;28;19926;-69
2022/10/27 06:21:41;;;;;;;;;;;12.80;99.90;;;;;;4961054;28;19936;-69
2022/10/27 06:24:08;;;;;;;;;;;12.90;99.90;;;;;;4963803;28;20332;-69
2022/10/27 06:26:35;;;;;;;;;;;12.90;99.90;;;;;;4963388;28;19934;-68
2022/10/27 06:29:03;;;;;;;;;;;13.00;99.90;;;;;;4962334;28;19926;-67
2022/10/27 06:31:30;;;;;;;;;;;13.00;99.90;;;;;;4963767;28;19934;-69
2022/10/27 06:33:57;;;;;;;;;;;13.10;99.90;;;;;;4963481;28;19926;-67
2022/10/27 06:36:24;;;;;;;;;;;13.20;99.90;;;;;;4957347;28;19977;-68
2022/10/27 06:38:51;;;;;;;;;;;13.30;99.90;;;;;;4956764;28;20352;-67
2022/10/27 06:41:17;;;;;;;;;;;13.40;99.90;;;;;;4952673;28;19927;-68
2022/10/27 06:43:44;;;;;;;;;;;13.40;99.90;;;;;;4957338;28;19998;-68
2022/10/27 06:46:12;;;;;;;;;;;13.40;99.90;;;;;;4939458;29;19930;-68
2022/10/27 06:48:39;;;;;;;;;;;13.50;99.90;;;;;;4964532;28;19926;-68
2022/10/27 06:51:06;;;;;;;;;;;13.60;99.90;;;;;;4951877;29;19931;-66
2022/10/27 06:53:33;;;;;;;;;;;13.60;99.90;;;;;;4968874;28;20329;-69
2022/10/27 06:56:00;;;;;;;;;;;13.70;99.90;;;;;;4965411;28;19930;-69
2022/10/27 06:58:26;;;;;;;;;;;13.70;99.90;;;;;;4969252;28;19930;-68
2022/10/27 07:00:53;;;;;;;;;;;13.80;99.90;;;;;;4961334;28;20337;-68
2022/10/27 07:03:22;;;;;;;;;;;13.80;99.90;;;;;;4967818;28;19933;-69
2022/10/27 07:05:48;;;;;;;;;;;13.90;99.90;;;;;;4960250;28;19935;-68
2022/10/27 07:08:15;;;;;;;;;;;14.00;99.90;;;;;;4951490;28;19973;-69
2022/10/27 07:10:42;;;;;;;;;;;14.10;99.90;;;;;;4963672;28;19960;-69
2022/10/27 07:13:09;;;;;;;;;;;14.10;99.90;;;;;;4963567;28;19926;-69
2022/10/27 07:15:37;;;;;;;;;;;14.10;99.90;;;;;;4962875;28;19934;-67
2022/10/27 07:18:05;;;;;;;;;;;14.20;99.90;;;;;;4959364;28;20408;-69
2022/10/27 07:20:37;;;;;;;;;;;14.30;99.90;;;;;;4968608;28;19926;-68
2022/10/27 07:23:04;;;;;;;;;;;14.40;99.90;;;;;;4961993;28;19926;-69
2022/10/27 07:25:32;;;;;;;;;;;14.40;99.90;;;;;;4968993;28;19930;-69
2022/10/27 07:28:00;;;;;;;;;;;14.50;99.90;;;;;;4959999;28;19925;-67
2022/10/27 07:30:29;;;;;;;;;;;14.60;99.90;;;;;;4959403;28;19931;-69
2022/10/27 07:32:56;;;;;;;;;;;14.60;99.90;;;;;;4955155;28;19974;-69
2022/10/27 07:35:23;;;;;;;;;;;14.60;99.90;;;;;;4959815;28;20340;-68
2022/10/27 07:37:51;;;;;;;;;;;14.70;99.90;;;;;;4957915;28;19941;-67
2022/10/27 07:40:20;;;;;;;;;;;14.70;99.90;;;;;;4955226;29;19926;-69
2022/10/27 07:42:47;;;;;;;;;;;14.80;99.90;;;;;;4964938;28;19934;-69
2022/10/27 07:45:14;;;;;;;;;;;14.80;99.90;;;;;;4966334;28;19930;-69
2022/10/27 07:47:45;;;;;;;;;;;14.90;99.90;;;;;;4958883;28;20373;-68
2022/10/27 07:50:11;;;;;;;;;;;15.00;99.90;;;;;;4966378;28;19930;-69
2022/10/27 07:52:42;;;;;;;;;;;15.10;99.90;;;;;;4965843;28;19926;-68
2022/10/27 07:55:11;;;;;;;;;;;15.10;99.90;;;;;;4968192;28;19930;-69
2022/10/27 07:57:38;;;;;;;;;;;15.20;99.90;;;;;;4964750;28;19933;-68
2022/10/27 08:00:06;;;;;;;;;;;15.30;99.90;;;;;;4962707;28;19945;-68
2022/10/27 08:02:38;;;;;;;;;;;15.40;99.90;;;;;;4959497;28;20017;-69
2022/10/27 08:05:06;;;;;;;;;;;15.50;99.90;;;;;;4963453;28;19926;-70
2022/10/27 08:07:32;;;;;;;;;;;15.60;99.90;;;;;;4967407;28;19926;-69
2022/10/27 08:09:59;;;;;;;;;;;15.60;99.90;;;;;;4951927;28;19926;-69
2022/10/27 08:12:27;;;;;;;;;;;15.70;99.90;;;;;;4966001;28;19926;-69
2022/10/27 08:14:54;;;;;;;;;;;15.80;99.90;;;;;;4960502;28;19957;-72
2022/10/27 08:17:21;;;;;;;;;;;15.90;99.90;;;;;;4965005;28;20195;-68
2022/10/27 08:19:48;;;;;;;;;;;16.00;99.90;;;;;;4964414;28;19985;-69
2022/10/27 08:22:15;;;;;;;;;;;16.00;99.90;;;;;;4964841;28;19926;-71
2022/10/27 08:24:42;;;;;;;;;;;16.10;99.90;;;;;;4965852;28;19945;-68
2022/10/27 08:27:09;;;;;;;;;;;16.20;99.90;;;;;;4960349;28;19934;-65
2022/10/27 08:29:37;;;;;;;;;;;16.30;99.90;;;;;;4958453;28;19931;-66
2022/10/27 08:32:04;;;;;;;;;;;16.40;99.90;;;;;;4968481;28;19926;-69
2022/10/27 08:34:31;;;;;;;;;;;16.40;99.90;;;;;;4962820;28;20377;-69
2022/10/27 08:36:57;;;;;;;;;;;16.50;99.90;;;;;;4967525;28;19927;-68
2022/10/27 08:39:24;;;;;;;;;;;16.60;99.90;;;;;;4956256;28;19933;-67
2022/10/27 08:41:56;;;;;;;;;;;16.60;99.90;;;;;;4966971;28;19982;-68
2022/10/27 08:44:25;;;;;;;;;;;16.70;99.90;;;;;;4961957;28;20452;-68
2022/10/27 08:46:54;;;;;;;;;;;16.80;99.90;;;;;;4960535;28;20485;-69
2022/10/27 08:49:32;;;;;;;;;;;16.80;99.90;;;;;;4956634;28;20157;-68
2022/10/27 08:52:03;;;;;;;;;;;16.90;99.90;;;;;;4961044;28;19926;-69
2022/10/27 08:54:30;;;;;;;;;;;16.90;99.90;;;;;;4954719;28;19930;-69
2022/10/27 08:56:58;;;;;;;;;;;16.90;99.90;;;;;;4963790;28;19980;-69
2022/10/27 08:59:26;;;;;;;;;;;16.90;99.90;;;;;;4961869;28;19927;-68
2022/10/27 09:01:59;;;;;;;;;;;16.90;99.90;;;;;;4962397;28;19927;-68
2022/10/27 09:04:29;;;;;;;;;;;17.00;99.90;;;;;;4962935;28;20333;-69
2022/10/27 09:07:02;;;;;;;;;;;17.10;99.90;;;;;;4966851;28;20004;-68
2022/10/27 09:09:33;;;;;;;;;;;17.20;99.90;;;;;;4961300;28;19934;-69
2022/10/27 09:12:04;;;;;;;;;;;17.30;99.90;;;;;;4953862;28;20401;-68
2022/10/27 09:14:55;;;;;;;;;;;17.30;99.90;;;;;;4957181;28;19926;-68
2022/10/27 09:17:26;;;;;;;;;;;17.40;99.90;;;;;;4909666;29;19948;-69
2022/10/27 09:19:55;;;;;;;;;;;17.50;99.90;;;;;;4974667;28;20389;-68
2022/10/27 09:22:22;;;;;;;;;;;17.60;99.90;;;;;;4962360;28;20464;-68
2022/10/27 09:24:54;;;;;;;;;;;17.70;99.90;;;;;;4957141;28;19927;-68
2022/10/27 09:27:22;;;;;;;;;;;17.90;99.90;;;;;;4963205;28;19926;-69
2022/10/27 09:29:51;;;;;;;;;;;18.10;99.90;;;;;;4954507;28;19989;-69
2022/10/27 09:32:20;;;;;;;;;;;18.20;99.90;;;;;;4957109;28;19927;-69
2022/10/27 09:34:51;;;;;;;;;;;18.30;99.90;;;;;;4960314;28;19934;-69
2022/10/27 09:37:22;;;;;;;;;;;18.40;99.90;;;;;;4961206;28;19927;-68
2022/10/27 09:39:49;;;;;;;;;;;18.50;99.90;;;;;;4961588;28;19927;-69
2022/10/27 09:42:17;;;;;;;;;;;18.70;99.90;;;;;;4961412;28;19926;-69
2022/10/27 09:44:45;;;;;;;;;;;18.90;99.90;;;;;;4961502;28;19926;-69
2022/10/27 09:47:12;;;;;;;;;;;19.00;99.90;;;;;;4961030;28;19927;-67
2022/10/27 09:49:39;;;;;;;;;;;19.20;99.90;;;;;;4953114;28;19933;-69
2022/10/27 09:52:10;;;;;;;;;;;19.30;99.90;;;;;;4957687;28;19977;-69
2022/10/27 09:54:41;;;;;;;;;;;19.50;99.90;;;;;;4952159;28;20056;-69
2022/10/27 09:57:09;;;;;;;;;;;19.70;99.90;;;;;;4964174;28;20417;-69
2022/10/27 09:59:37;;;;;;;;;;;19.90;99.90;;;;;;4959323;28;19927;-69
2022/10/27 10:02:04;;;;;;;;;;;20.10;99.90;;;;;;4963961;28;19951;-69
2022/10/27 10:04:32;;;;;;;;;;;20.20;99.90;;;;;;4964078;28;19926;-69
2022/10/27 10:07:00;;;;;;;;;;;20.30;99.90;;;;;;4967251;28;19927;-69
2022/10/27 10:09:29;;;;;;;;;;;20.30;99.90;;;;;;4947885;28;19926;-69
2022/10/27 10:12:12;;;;;;;;;;;20.40;99.90;;;;;;4956484;28;19926;-69
2022/10/27 10:14:38;;;;;;;;;;;20.70;99.90;;;;;;4956419;28;19926;-69
2022/10/27 10:17:05;;;;;;;;;;;21.10;99.90;;;;;;4958679;28;19977;-69
2022/10/27 10:19:32;;;;;;;;;;;22.00;99.90;;;;;;4950901;28;20338;-68
2022/10/27 10:22:00;;;;;;;;;;;25.70;99.90;;;;;;4953533;28;20297;-69
2022/10/27 10:24:28;;;;;;;;;;;26.70;99.90;;;;;;4952711;28;19933;-69
2022/10/27 10:26:57;;;;;;;;;;;26.80;99.90;;;;;;4949750;28;19930;-69
2022/10/27 10:29:29;;;;;;;;;;;27.60;99.90;;;;;;4954315;28;20396;-69
2022/10/27 10:32:10;;;;;;;;;;;29.60;99.90;;;;;;4956620;28;19925;-69
2022/10/27 10:34:37;;;;;;;;;;;30.30;99.90;;;;;;4958736;28;19926;-69
2022/10/27 10:37:04;;;;;;;;;;;30.90;99.90;;;;;;4952290;28;20438;-70
2022/10/27 10:39:34;;;;;;;;;;;30.60;99.90;;;;;;4964306;28;20422;-70
2022/10/27 10:42:14;;;;;;;;;;;31.20;99.90;;;;;;4948515;29;19926;-70
2022/10/27 10:44:41;;;;;;;;;;;32.70;99.90;;;;;;4961141;28;19930;-70
2022/10/27 10:47:20;;;;;;;;;;;33.70;99.90;;;;;;4963557;28;20309;-69
2022/10/27 10:49:49;;;;;;;;;;;33.20;99.90;;;;;;4959738;28;19926;-70
2022/10/27 10:52:18;;;;;;;;;;;32.40;99.90;;;;;;4943367;28;19951;-69
2022/10/27 10:54:45;;;;;;;;;;;31.30;99.90;;;;;;4943512;28;19931;-69
2022/10/27 10:57:23;;;;;;;;;;;32.50;99.90;;;;;;4953402;28;19933;-69
2022/10/27 10:59:52;;;;;;;;;;;33.30;99.90;;;;;;4948577;28;19926;-69
2022/10/27 11:02:25;;;;;;;;;;;34.30;99.90;;;;;;4948841;29;19926;-69
2022/10/27 11:04:52;;;;;;;;;;;34.70;99.90;;;;;;4957126;28;19926;-70
2022/10/27 11:07:20;;;;;;;;;;;35.10;99.90;;;;;;4956150;28;19930;-68
2022/10/27 11:09:51;;;;;;;;;;;35.80;99.90;;;;;;4947628;28;19934;-70
2022/10/27 11:12:24;;;;;;;;;;;34.40;99.90;;;;;;4948321;28;19927;-69
2022/10/27 11:14:53;;;;;;;;;;;34.70;99.90;;;;;;4954500;28;20393;-69
2022/10/27 11:17:20;;;;;;;;;;;34.50;99.90;;;;;;4946925;28;19985;-69
2022/10/27 11:19:47;;;;;;;;;;;35.00;99.90;;;;;;4952638;28;20310;-71
2022/10/27 11:22:16;;;;;;;;;;;34.50;99.90;;;;;;4951065;28;19931;-70
2022/10/27 11:24:47;;;;;;;;;;;34.80;99.90;;;;;;4960932;28;19934;-70
2022/10/27 11:27:15;;;;;;;;;;;35.40;99.90;;;;;;4954748;28;19927;-70
2022/10/27 11:29:47;;;;;;;;;;;34.80;99.90;;;;;;4961623;28;19926;-70
2022/10/27 11:32:20;;;;;;;;;;;34.80;99.90;;;;;;4957874;28;20349;-70
2022/10/27 11:34:50;;;;;;;;;;;35.90;99.90;;;;;;4959489;28;20393;-70
2022/10/27 11:37:20;;;;;;;;;;;35.70;99.90;;;;;;4954767;28;19926;-70
2022/10/27 11:39:50;;;;;;;;;;;36.10;99.90;;;;;;4961539;28;19977;-70
2022/10/27 11:42:22;;;;;;;;;;;35.50;99.90;;;;;;4956885;28;19973;-70
2022/10/27 11:44:53;;;;;;;;;;;34.80;99.90;;;;;;4969667;28;19985;-69
2022/10/27 11:47:24;;;;;;;;;;;35.40;99.90;;;;;;4962552;28;19978;-69
2022/10/27 11:49:53;;;;;;;;;;;35.40;99.90;;;;;;4955229;28;19933;-69
2022/10/27 11:52:22;;;;;;;;;;;35.70;99.90;;;;;;4964581;28;19933;-70
2022/10/27 11:54:48;;;;;;;;;;;35.60;99.90;;;;;;4961745;28;20408;-70
2022/10/27 11:57:27;;;;;;;;;;;35.30;99.90;;;;;;4963599;28;19927;-70
2022/10/27 12:00:00;;;;;;;;;;;34.70;99.90;;;;;;4958538;28;19938;-69
2022/10/27 12:02:38;;;;;;;;;;;32.50;99.90;;;;;;4954296;28;19926;-70
2022/10/27 12:05:07;;;;;;;;;;;31.50;99.90;;;;;;4955995;28;19930;-70
2022/10/27 12:07:39;;;;;;;;;;;29.90;99.90;;;;;;4960559;28;19930;-70
2022/10/27 12:10:10;;;;;;;;;;;28.80;99.90;;;;;;4960197;28;19930;-70
2022/10/27 12:12:38;;;;;;;;;;;28.00;99.90;;;;;;4961531;28;20306;-69
2022/10/27 12:15:08;;;;;;;;;;;26.80;99.90;;;;;;4966392;28;19933;-69
2022/10/27 12:17:40;;;;;;;;;;;26.40;99.90;;;;;;4956694;28;19927;-70
2022/10/27 12:20:08;;;;;;;;;;;26.30;99.90;;;;;;4968398;28;20292;-70
2022/10/27 12:22:38;;;;;;;;;;;27.50;99.90;;;;;;4959080;28;19948;-69
2022/10/27 12:25:08;;;;;;;;;;;28.30;99.90;;;;;;4958542;28;19963;-70
2022/10/27 12:27:37;;;;;;;;;;;28.20;99.90;;;;;;4955912;28;19934;-70
2022/10/27 12:30:07;;;;;;;;;;;27.60;99.90;;;;;;4964877;28;19930;-70
2022/10/27 12:32:37;;;;;;;;;;;27.10;99.90;;;;;;4964153;28;19938;-70
2022/10/27 12:35:08;;;;;;;;;;;26.60;99.90;;;;;;4957724;28;20364;-70
2022/10/27 12:37:38;;;;;;;;;;;26.30;99.90;;;;;;4962050;28;19926;-70
2022/10/27 12:40:09;;;;;;;;;;;26.40;99.90;;;;;;4963936;28;20430;-70
2022/10/27 12:42:40;;;;;;;;;;;26.90;99.90;;;;;;4958956;28;19933;-70
2022/10/27 12:45:19;;;;;;;;;;;27.10;99.90;;;;;;4958729;28;19926;-69
2022/10/27 12:47:50;;;;;;;;;;;26.70;99.90;;;;;;4954743;28;19927;-66
2022/10/27 12:50:27;;;;;;;;;;;26.50;99.90;;;;;;4953624;28;19926;-70
2022/10/27 12:52:56;;;;;;;;;;;26.20;99.90;;;;;;4977579;28;19927;-70
2022/10/27 12:55:36;;;;;;;;;;;26.30;99.90;;;;;;4960406;28;19937;-69
2022/10/27 12:58:05;;;;;;;;;;;26.40;99.90;;;;;;4954717;28;19930;-71
2022/10/27 13:00:35;;;;;;;;;;;26.80;99.90;;;;;;4962958;28;19957;-70
2022/10/27 13:03:20;;;;;;;;;;;26.70;99.90;;;;;;4961957;28;19926;-68
2022/10/27 13:06:00;;;;;;;;;;;26.20;99.90;;;;;;4962930;28;19981;-71
2022/10/27 13:08:37;;;;;;;;;;;25.90;99.90;;;;;;4950384;28;19926;-70
2022/10/27 13:11:13;;;;;;;;;;;25.60;99.90;;;;;;4958302;28;19926;-71
2022/10/27 13:13:51;;;;;;;;;;;25.60;99.90;;;;;;4967985;28;19981;-70
2022/10/27 13:16:23;;;;;;;;;;;25.50;99.90;;;;;;4962178;28;19986;-70
2022/10/27 13:18:56;;;;;;;;;;;25.50;99.90;;;;;;4965692;28;19926;-68
2022/10/27 13:21:28;;;;;;;;;;;25.30;99.90;;;;;;4963781;28;19927;-69
2022/10/27 13:23:59;;;;;;;;;;;25.30;99.90;;;;;;4959687;28;19985;-70
2022/10/27 13:26:28;;;;;;;;;;;25.90;99.90;;;;;;4959686;28;19927;-69
2022/10/27 13:28:58;;;;;;;;;;;26.00;99.90;;;;;;4963874;28;19934;-69
2022/10/27 13:31:25;;;;;;;;;;;26.00;99.90;;;;;;4962305;28;20320;-68
2022/10/27 13:33:59;;;;;;;;;;;25.80;99.90;;;;;;4962642;28;19957;-69
2022/10/27 13:36:28;;;;;;;;;;;25.80;99.90;;;;;;4962483;28;19926;-70
2022/10/27 13:39:09;;;;;;;;;;;26.00;99.90;;;;;;4954078;28;19935;-73
2022/10/27 13:41:50;;;;;;;;;;;25.80;99.90;;;;;;4960575;28;19930;-69
2022/10/27 13:44:27;;;;;;;;;;;25.70;99.90;;;;;;4972080;28;20367;-69
2022/10/27 13:47:08;;;;;;;;;;;25.40;99.90;;;;;;4962866;28;19930;-69
2022/10/27 13:49:50;;;;;;;;;;;24.90;99.90;;;;;;4957886;28;19931;-71
2022/10/27 13:52:20;;;;;;;;;;;24.70;99.90;;;;;;4960882;28;19926;-70
2022/10/27 13:54:51;;;;;;;;;;;24.50;99.90;;;;;;4962890;28;19927;-70
2022/10/27 13:57:39;;;;;;;;;;;24.50;99.90;;;;;;4968591;28;19933;-70
2022/10/27 14:00:10;;;;;;;;;;;24.30;99.90;;;;;;4929187;28;20357;-69
2022/10/27 14:02:42;;;;;;;;;;;24.10;99.90;;;;;;4960455;28;19926;-69
2022/10/27 14:05:19;;;;;;;;;;;23.90;99.90;;;;;;4961684;28;19930;-70
2022/10/27 14:07:47;;;;;;;;;;;23.80;99.90;;;;;;4957264;28;19930;-68
2022/10/27 14:10:14;;;;;;;;;;;23.60;99.90;;;;;;4955190;28;19970;-69
2022/10/27 14:12:41;;;;;;;;;;;23.40;99.90;;;;;;4959111;28;19934;-70
2022/10/27 14:15:16;;;;;;;;;;;23.20;99.90;;;;;;4963948;28;19926;-70
2022/10/27 14:17:44;;;;;;;;;;;23.10;99.90;;;;;;4961947;28;19930;-69
2022/10/27 14:20:19;;;;;;;;;;;22.90;99.90;;;;;;4963591;28;19925;-70
2022/10/27 14:22:48;;;;;;;;;;;22.80;99.90;;;;;;4961102;28;19935;-69
2022/10/27 14:25:17;;;;;;;;;;;22.70;99.90;;;;;;4958035;28;19934;-70
2022/10/27 14:27:43;;;;;;;;;;;22.60;99.90;;;;;;4954638;28;19977;-70
2022/10/27 14:30:13;;;;;;;;;;;22.50;99.90;;;;;;4962351;28;19953;-70
2022/10/27 14:32:40;;;;;;;;;;;22.40;99.90;;;;;;4963051;28;19926;-70
2022/10/27 14:35:19;;;;;;;;;;;22.30;99.90;;;;;;4962933;28;19930;-70
2022/10/27 14:37:48;;;;;;;;;;;22.30;99.90;;;;;;4956803;28;19933;-69
2022/10/27 14:40:17;;;;;;;;;;;22.20;99.90;;;;;;4960751;28;19972;-70
2022/10/27 14:42:44;;;;;;;;;;;22.20;99.90;;;;;;4949217;28;20409;-70
2022/10/27 14:45:12;;;;;;;;;;;22.10;99.90;;;;;;4962899;28;19926;-69
2022/10/27 14:47:41;;;;;;;;;;;22.10;99.90;;;;;;4958602;28;19930;-70
2022/10/27 14:50:12;;;;;;;;;;;22.10;99.90;;;;;;4963509;28;19926;-70
2022/10/27 14:52:40;;;;;;;;;;;22.00;99.90;;;;;;4952176;28;19934;-69
2022/10/27 14:55:16;;;;;;;;;;;22.00;99.90;;;;;;4956872;28;19926;-69
2022/10/27 14:57:43;;;;;;;;;;;22.00;99.90;;;;;;4963380;28;19927;-69
2022/10/27 15:00:19;;;;;;;;;;;21.90;99.90;;;;;;4956880;28;19926;-69
2022/10/27 15:02:46;;;;;;;;;;;21.90;99.90;;;;;;4965495;28;19987;-69
2022/10/27 15:05:14;;;;;;;;;;;21.90;99.90;;;;;;4959274;28;19926;-69
2022/10/27 15:07:44;;;;;;;;;;;21.80;99.90;;;;;;4956732;28;19927;-70
2022/10/27 15:10:17;;;;;;;;;;;21.70;99.90;;;;;;4954425;28;19926;-69
2022/10/27 15:12:47;;;;;;;;;;;21.70;99.90;;;;;;4959595;28;19954;-70
2022/10/27 15:15:14;;;;;;;;;;;21.60;99.90;;;;;;4967366;28;19926;-70
2022/10/27 15:17:41;;;;;;;;;;;21.60;99.90;;;;;;4964451;28;20352;-70
2022/10/27 15:20:14;;;;;;;;;;;21.50;99.90;;;;;;4966446;28;20369;-70
2022/10/27 15:22:41;;;;;;;;;;;21.50;99.90;;;;;;4965862;28;19930;-70
2022/10/27 15:25:11;;;;;;;;;;;21.50;99.90;;;;;;4959748;28;19930;-68
2022/10/27 15:27:40;;;;;;;;;;;21.40;99.90;;;;;;4957875;28;19935;-68
2022/10/27 15:30:07;;;;;;;;;;;21.40;99.90;;;;;;4955607;28;19934;-66
2022/10/27 15:32:37;;;;;;;;;;;21.40;99.90;;;;;;4961250;28;19981;-66
2022/10/27 15:35:19;;;;;;;;;;;21.40;99.90;;;;;;4953900;28;19973;-65
2022/10/27 15:37:46;;;;;;;;;;;21.30;99.90;;;;;;4962851;28;19971;-64
2022/10/27 15:40:21;;;;;;;;;;;21.30;99.90;;;;;;4958266;28;20374;-65
2022/10/27 15:42:49;;;;;;;;;;;21.30;99.90;;;;;;4958209;28;19923;-68
2022/10/27 15:45:29;;;;;;;;;;;21.30;99.90;;;;;;4967000;28;19923;-67
2022/10/27 15:47:56;;;;;;;;;;;21.30;99.90;;;;;;4966588;28;20324;-68
2022/10/27 15:50:25;;;;;;;;;;;21.30;99.90;;;;;;4960435;28;20009;-68
2022/10/27 15:52:53;;;;;;;;;;;21.30;99.90;;;;;;4963404;28;20392;-68
2022/10/27 15:55:24;;;;;;;;;;;21.20;99.90;;;;;;4954682;28;19926;-70
2022/10/27 15:57:52;;;;;;;;;;;21.10;99.90;;;;;;4961695;28;19929;-65
2022/10/27 16:00:21;;;;;;;;;;;21.10;99.90;;;;;;4960199;28;19922;-67
2022/10/27 16:02:50;;;;;;;;;;;21.00;99.90;;;;;;4962160;28;19922;-68
2022/10/27 16:05:44;;;;;;;;;;;20.90;99.90;;;;;;4962567;28;19922;-68
2022/10/27 16:08:29;;;;;;;;;;;20.90;99.90;;;;;;4945513;28;20333;-68
2022/10/27 16:10:56;;;;;;;;;;;20.80;99.90;;;;;;4959594;28;19926;-68
2022/10/27 16:13:24;;;;;;;;;;;20.80;99.90;;;;;;4964251;28;19973;-68
2022/10/27 16:15:52;;;;;;;;;;;20.70;99.90;;;;;;4964209;28;19922;-67
2022/10/27 16:18:21;;;;;;;;;;;20.60;99.90;;;;;;4968131;28;19923;-68
2022/10/27 16:20:48;;;;;;;;;;;20.50;99.90;;;;;;4959382;28;19923;-68
2022/10/27 16:23:15;;;;;;;;;;;20.50;99.90;;;;;;4956269;28;19923;-68
2022/10/27 16:25:44;;;;;;;;;;;20.50;99.90;;;;;;4968616;28;19922;-68
2022/10/27 16:28:14;;;;;;;;;;;20.50;99.90;;;;;;4958963;28;19938;-68
2022/10/27 16:30:42;;;;;;;;;;;20.40;99.90;;;;;;4969611;28;19922;-68
2022/10/27 16:33:13;;;;;;;;;;;20.30;99.90;;;;;;4956744;28;19922;-68
2022/10/27 16:35:40;;;;;;;;;;;20.30;99.90;;;;;;4958287;28;20344;-68
2022/10/27 16:38:06;;;;;;;;;;;20.30;99.90;;;;;;4965643;28;20098;-68
2022/10/27 16:40:33;;;;;;;;;;;20.20;99.90;;;;;;4959574;28;19961;-68
2022/10/27 16:43:02;;;;;;;;;;;20.20;99.90;;;;;;4962440;28;19922;-68
2022/10/27 16:45:28;;;;;;;;;;;20.10;99.90;;;;;;4955252;28;19970;-69
2022/10/27 16:47:59;;;;;;;;;;;20.10;99.90;;;;;;4943893;28;19945;-69
2022/10/27 16:50:26;;;;;;;;;;;20.10;99.90;;;;;;4959529;28;19923;-68
2022/10/27 16:52:53;;;;;;;;;;;20.10;99.90;;;;;;4959276;28;19926;-67
2022/10/27 16:55:20;;;;;;;;;;;20.10;99.90;;;;;;4963838;28;19930;-68
2022/10/27 16:57:47;;;;;;;;;;;20.10;99.90;;;;;;4963955;28;19931;-68
2022/10/27 17:00:14;;;;;;;;;;;20.00;99.90;;;;;;4961286;28;20394;-68
2022/10/27 17:02:41;;;;;;;;;;;20.00;99.90;;;;;;4964197;28;19923;-68
2022/10/27 17:05:10;;;;;;;;;;;20.10;99.90;;;;;;4960180;28;19937;-68
2022/10/27 17:07:37;;;;;;;;;;;20.10;99.90;;;;;;4954318;28;19922;-68
2022/10/27 17:10:05;;;;;;;;;;;20.10;99.90;;;;;;4957071;28;19922;-68
2022/10/27 17:12:31;;;;;;;;;;;20.20;99.90;;;;;;4963916;28;19930;-69
2022/10/27 17:14:58;;;;;;;;;;;20.20;99.90;;;;;;4951083;28;19933;-69
2022/10/27 17:17:25;;;;;;;;;;;20.30;99.90;;;;;;4952512;28;19926;-66
2022/10/27 17:19:52;;;;;;;;;;;20.40;99.90;;;;;;4962018;28;19930;-68
2022/10/27 17:22:20;;;;;;;;;;;20.40;99.90;;;;;;4959989;28;19926;-66
2022/10/27 17:24:47;;;;;;;;;;;20.40;99.90;;;;;;4963659;28;19922;-68
2022/10/27 17:27:13;;;;;;;;;;;20.40;99.90;;;;;;4955204;28;19922;-68
2022/10/27 17:29:41;;;;;;;;;;;20.30;99.90;;;;;;4954657;28;19930;-69